Flood From: 18-02-2018 16:00 Until: 19-02-2018 16:00 warning for: Flood Level: Yellow info button

Although rather usual in this region, locally or potentially dangerous phenomena are expected. (such as local winds, summer thunderstorms, rising streams or high waves) Be aware and pay attention to the latest weather updates, especially if you carry out activities exposed to weather or close to a stream or shoreline. 


Meteo18 Weather Cam more information Meteo18 Weather Cam


Thunder radar more information blitzortung!


Rain radar more information rain snow radar


Visit our other weather sites:

Template documentation
and downloads

And another site



Weather Underground History page Text

Daily Summary for June 17, 2017 Units:  English    Metric   Both
« Previous Day
Next Day »
Daily Weekly Monthly Yearly Custom
  High: Low: Average:
Temperature: TemperatureC °F 12.5 °F 19.8 °F
Dew Point: DewpointC °F 10.1 °F 12.6 °F
Humidity: Humidity % 47 % 65 %
Wind Speed: WindSpeedKMH mph 0.0 mph 9.5 mph
Wind Gust: WindSpeedGustKMH mph - -
Wind:- - East
Pressure: PressurehPa in 1024.3 in -
Precipitation: 0.0 in    
Historical Graphs
 
 
Tabular Data for June 17, 2017
Time Temperature Dew Point Pressure Wind Wind Speed Wind Gust Humidity Rainfall Rate (Hourly)
TemperatureC °F DewpointC °F PressurehPa in Calm     Humidity % HourlyPrecipMM in
00:02 16.1 °F 11.5 °F 1027.3 in Calm   3.2 mph 74 % 0.0 in
00:07 16.1 °F 11.5 °F 1027.3 in NNW 1.6 mph 3.2 mph 74 % 0.0 in
00:12 16.2 °F 11.4 °F 1027.3 in Calm   3.2 mph 73 % 0.0 in
00:17 16.1 °F 11.3 °F 1027.3 in Calm   3.2 mph 73 % 0.0 in
00:22 16.1 °F 11.5 °F 1027.3 in Calm   3.2 mph 74 % 0.0 in
00:32 16.0 °F 11.4 °F 1027.3 in Calm   1.6 mph 74 % 0.0 in
00:37 16.1 °F 11.5 °F 1027.3 in WNW 3.2 mph 3.2 mph 74 % 0.0 in
00:42 16.1 °F 11.3 °F 1027.3 in Calm   3.2 mph 73 % 0.0 in
00:47 16.1 °F 11.3 °F 1027.3 in WNW 1.6 mph 3.2 mph 73 % 0.0 in
00:52 16.0 °F 11.4 °F 1027.3 in Calm   3.2 mph 74 % 0.0 in
00:57 15.9 °F 11.3 °F 1027.3 in Calm   3.2 mph 74 % 0.0 in
01:02 15.8 °F 11.4 °F 1027.3 in Calm   3.2 mph 75 % 0.0 in
01:07 15.7 °F 11.3 °F 1027.3 in Calm   3.2 mph 75 % 0.0 in
01:12 15.6 °F 11.2 °F 1027.3 in Calm   1.6 mph 75 % 0.0 in
01:17 15.5 °F 11.3 °F 1027.3 in NNE 1.6 mph 3.2 mph 76 % 0.0 in
01:22 15.4 °F 11.2 °F 1027.3 in Calm   4.8 mph 76 % 0.0 in
01:27 15.5 °F 11.3 °F 1027.3 in Calm   8.0 mph 76 % 0.0 in
01:32 15.4 °F 11.4 °F 1027.3 in NNW 1.6 mph 8.0 mph 77 % 0.0 in
01:37 15.6 °F 11.6 °F 1027.3 in Calm   8.0 mph 77 % 0.0 in
01:42 15.6 °F 11.6 °F 1027.3 in Calm   8.0 mph 77 % 0.0 in
01:47 15.6 °F 11.6 °F 1027.3 in NNE 1.6 mph 9.7 mph 77 % 0.0 in
01:52 15.6 °F 11.6 °F 1027.0 in NNW 3.2 mph 9.7 mph 77 % 0.0 in
01:57 15.6 °F 11.6 °F 1027.0 in North 4.8 mph 9.7 mph 77 % 0.0 in
02:02 15.6 °F 11.6 °F 1027.0 in North 1.6 mph 9.7 mph 77 % 0.0 in
02:07 15.6 °F 11.6 °F 1027.0 in NNE 3.2 mph 11.3 mph 77 % 0.0 in
02:12 15.6 °F 11.6 °F 1027.0 in NNW 3.2 mph 14.5 mph 77 % 0.0 in
02:17 15.6 °F 11.8 °F 1027.0 in NNW 3.2 mph 14.5 mph 78 % 0.0 in
02:22 15.6 °F 11.6 °F 1027.0 in Calm   14.5 mph 77 % 0.0 in
02:27 15.5 °F 11.7 °F 1027.0 in North 1.6 mph 12.9 mph 78 % 0.0 in
02:32 15.4 °F 11.6 °F 1027.0 in North 3.2 mph 12.9 mph 78 % 0.0 in
02:37 15.4 °F 11.6 °F 1027.0 in NE 3.2 mph 12.9 mph 78 % 0.0 in
02:42 15.4 °F 11.6 °F 1027.0 in ENE 4.8 mph 12.9 mph 78 % 0.0 in
02:47 15.3 °F 11.7 °F 1027.0 in NE 3.2 mph 12.9 mph 79 % 0.0 in
02:52 15.3 °F 11.7 °F 1027.0 in NE 1.6 mph 9.7 mph 79 % 0.0 in
02:57 15.2 °F 11.6 °F 1027.0 in Calm   9.7 mph 79 % 0.0 in
03:02 15.1 °F 11.5 °F 1027.0 in NE 4.8 mph 8.0 mph 79 % 0.0 in
03:07 15.1 °F 11.7 °F 1027.0 in NE 6.4 mph 8.0 mph 80 % 0.0 in
03:12 15.0 °F 11.6 °F 1027.0 in NNE 1.6 mph 9.7 mph 80 % 0.0 in
03:17 14.9 °F 11.5 °F 1027.0 in NE 1.6 mph 9.7 mph 80 % 0.0 in
03:22 14.9 °F 11.5 °F 1027.0 in NNE 3.2 mph 9.7 mph 80 % 0.0 in
03:27 14.8 °F 11.6 °F 1027.0 in North 8.0 mph 9.7 mph 81 % 0.0 in
03:32 14.7 °F 11.5 °F 1027.0 in North 1.6 mph 9.7 mph 81 % 0.0 in
03:37 14.6 °F 11.4 °F 1027.0 in North 1.6 mph 9.7 mph 81 % 0.0 in
03:42 14.4 °F 11.4 °F 1027.3 in NNE 4.8 mph 9.7 mph 82 % 0.0 in
03:47 14.3 °F 11.3 °F 1027.0 in North 3.2 mph 8.0 mph 82 % 0.0 in
03:52 14.1 °F 11.3 °F 1027.3 in North 3.2 mph 8.0 mph 83 % 0.0 in
03:57 14.1 °F 11.3 °F 1027.3 in North 1.6 mph 8.0 mph 83 % 0.0 in
04:02 13.9 °F 11.2 °F 1027.0 in NW 1.6 mph 9.7 mph 84 % 0.0 in
04:07 14.0 °F 11.2 °F 1027.3 in NNE 6.4 mph 9.7 mph 83 % 0.0 in
04:12 13.9 °F 11.1 °F 1027.3 in NE 1.6 mph 9.7 mph 83 % 0.0 in
04:17 13.7 °F 11.0 °F 1027.3 in NNE 3.2 mph 6.4 mph 84 % 0.0 in
04:22 13.6 °F 10.9 °F 1027.3 in NNE 3.2 mph 6.4 mph 84 % 0.0 in
04:27 13.6 °F 11.1 °F 1027.3 in NNE 4.8 mph 6.4 mph 85 % 0.0 in
04:32 13.7 °F 11.0 °F 1027.3 in NNW 6.4 mph 11.3 mph 84 % 0.0 in
04:37 13.7 °F 11.0 °F 1027.3 in North 4.8 mph 11.3 mph 84 % 0.0 in
04:42 13.7 °F 11.0 °F 1027.3 in NNE 1.6 mph 11.3 mph 84 % 0.0 in
04:47 13.6 °F 10.8 °F 1027.3 in NE 4.8 mph 11.3 mph 83 % 0.0 in
04:52 13.6 °F 10.9 °F 1027.3 in NNW 3.2 mph 11.3 mph 84 % 0.0 in
04:57 13.6 °F 10.9 °F 1027.3 in NW 1.6 mph 9.7 mph 84 % 0.0 in
05:02 13.5 °F 10.8 °F 1027.3 in NNW 3.2 mph 9.7 mph 84 % 0.0 in
05:12 13.4 °F 10.8 °F 1027.3 in NE 1.6 mph 8.0 mph 84 % 0.0 in
05:17 13.3 °F 10.7 °F 1027.3 in NNE 3.2 mph 6.4 mph 84 % 0.0 in
05:22 13.2 °F 10.6 °F 1027.7 in NE 1.6 mph 6.4 mph 84 % 0.0 in
05:27 13.1 °F 10.6 °F 1027.7 in NNW 1.6 mph 6.4 mph 85 % 0.0 in
05:32 13.1 °F 10.5 °F 1027.7 in NNE 1.6 mph 6.4 mph 84 % 0.0 in
05:42 12.8 °F 10.3 °F 1027.7 in NE 3.2 mph 8.0 mph 85 % 0.0 in
05:52 12.7 °F 10.2 °F 1027.7 in NNE 4.8 mph 6.4 mph 85 % 0.0 in
06:02 12.6 °F 10.1 °F 1027.7 in NNE 4.8 mph 6.4 mph 85 % 0.0 in
06:12 12.5 °F 10.2 °F 1027.7 in NNE 1.6 mph 6.4 mph 86 % 0.0 in
06:17 12.6 °F 10.3 °F 1028.0 in North 3.2 mph 4.8 mph 86 % 0.0 in
06:22 12.5 °F 10.2 °F 1027.7 in NNE 3.2 mph 4.8 mph 86 % 0.0 in
06:32 12.6 °F 10.3 °F 1027.7 in NE 1.6 mph 4.8 mph 86 % 0.0 in
06:42 13.1 °F 10.6 °F 1027.7 in NNE 4.8 mph 4.8 mph 85 % 0.0 in
06:47 13.3 °F 10.7 °F 1027.7 in NNW 4.8 mph 6.4 mph 84 % 0.0 in
06:57 13.6 °F 10.8 °F 1027.7 in NNE 3.2 mph 9.7 mph 83 % 0.0 in
07:02 13.8 °F 11.0 °F 1028.0 in NNE 1.6 mph 9.7 mph 83 % 0.0 in
07:12 14.2 °F 11.2 °F 1028.0 in NE 3.2 mph 9.7 mph 82 % 0.0 in
07:17 14.4 °F 11.2 °F 1028.0 in NE 3.2 mph 8.0 mph 81 % 0.0 in
07:22 14.6 °F 11.4 °F 1028.0 in NNE 1.6 mph 8.0 mph 81 % 0.0 in
07:42 15.4 °F 11.6 °F 1028.0 in NNE 3.2 mph 8.0 mph 78 % 0.0 in
07:52 15.6 °F 11.6 °F 1028.0 in NE 4.8 mph 9.7 mph 77 % 0.0 in
07:57 15.8 °F 11.6 °F 1028.3 in NNE 9.7 mph 9.7 mph 76 % 0.0 in
08:02 15.9 °F 11.7 °F 1028.0 in NE 1.6 mph 9.7 mph 76 % 0.0 in
08:12 16.2 °F 11.4 °F 1028.3 in NE 6.4 mph 9.7 mph 73 % 0.0 in
08:17 16.5 °F 11.8 °F 1028.3 in NE 8.0 mph 11.3 mph 74 % 0.0 in
08:22 16.6 °F 11.7 °F 1028.3 in NE 3.2 mph 11.3 mph 73 % 0.0 in
08:32 16.6 °F 11.5 °F 1028.3 in NE 6.4 mph 9.7 mph 72 % 0.0 in
08:42 16.7 °F 11.6 °F 1028.3 in East 6.4 mph 17.7 mph 72 % 0.0 in
08:47 16.9 °F 12.0 °F 1028.3 in ENE 6.4 mph 17.7 mph 73 % 0.0 in
08:52 16.9 °F 11.8 °F 1028.3 in ENE 4.8 mph 17.7 mph 72 % 0.0 in
08:57 16.9 °F 11.8 °F 1028.3 in East 11.3 mph 16.1 mph 72 % 0.0 in
09:02 17.1 °F 12.0 °F 1028.3 in NNE 9.7 mph 17.7 mph 72 % 0.0 in
09:07 17.1 °F 11.8 °F 1028.3 in ENE 9.7 mph 17.7 mph 71 % 0.0 in
09:12 17.3 °F 12.2 °F 1028.3 in NE 8.0 mph 17.7 mph 72 % 0.0 in
09:17 17.4 °F 11.9 °F 1028.3 in East 6.4 mph 17.7 mph 70 % 0.0 in
09:22 17.6 °F 12.1 °F 1028.3 in East 8.0 mph 17.7 mph 70 % 0.0 in
09:32 18.0 °F 11.6 °F 1028.3 in ENE 14.5 mph 16.1 mph 66 % 0.0 in
09:42 18.3 °F 11.6 °F 1028.7 in ENE 4.8 mph 19.3 mph 65 % 0.0 in
09:52 18.4 °F 11.5 °F 1028.3 in ENE 4.8 mph 20.9 mph 64 % 0.0 in
09:57 18.6 °F 11.2 °F 1028.3 in NE 8.0 mph 20.9 mph 62 % 0.0 in
10:02 18.7 °F 11.5 °F 1028.3 in NE 9.7 mph 20.9 mph 63 % 0.0 in
10:12 18.9 °F 11.0 °F 1028.3 in ENE 12.9 mph 19.3 mph 60 % 0.0 in
10:17 19.1 °F 11.4 °F 1028.3 in NE 9.7 mph 20.9 mph 61 % 0.0 in
10:22 19.2 °F 11.2 °F 1028.3 in ENE 8.0 mph 24.1 mph 60 % 0.0 in
10:32 19.7 °F 11.5 °F 1028.3 in NE 14.5 mph 24.1 mph 59 % 0.0 in
10:42 19.7 °F 11.5 °F 1028.3 in ENE 14.5 mph 22.5 mph 59 % 0.0 in
10:47 19.8 °F 11.3 °F 1028.3 in East 6.4 mph 24.1 mph 58 % 0.0 in
10:52 20.1 °F 11.6 °F 1028.3 in NNE 19.3 mph 24.1 mph 58 % 0.0 in
11:02 20.1 °F 11.6 °F 1028.0 in NE 12.9 mph 19.3 mph 58 % 0.0 in
11:12 20.4 °F 11.6 °F 1028.0 in NE 16.1 mph 20.9 mph 57 % 0.0 in
11:17 20.4 °F 11.3 °F 1028.0 in NE 6.4 mph 22.5 mph 56 % 0.0 in
11:22 20.5 °F 11.4 °F 1028.0 in ENE 11.3 mph 27.4 mph 56 % 0.0 in
11:32 21.0 °F 11.9 °F 1028.0 in NNE 14.5 mph 27.4 mph 56 % 0.0 in
11:42 21.0 °F 11.6 °F 1028.0 in NNE 17.7 mph 25.7 mph 55 % 0.0 in
11:47 20.8 °F 11.2 °F 1027.7 in ENE 19.3 mph 27.4 mph 54 % 0.0 in
11:52 21.1 °F 11.7 °F 1027.7 in NNW 6.4 mph 27.4 mph 55 % 0.0 in
12:02 21.5 °F 11.5 °F 1027.7 in ENE 12.9 mph 27.4 mph 53 % 0.0 in
12:12 21.8 °F 11.8 °F 1027.7 in NNE 9.7 mph 27.4 mph 53 % 0.0 in
12:17 21.9 °F 11.6 °F 1027.7 in NE 14.5 mph 24.1 mph 52 % 0.0 in
12:22 22.1 °F 11.8 °F 1027.7 in ENE 12.9 mph 24.1 mph 52 % 0.0 in
12:32 22.2 °F 11.9 °F 1027.7 in North 16.1 mph 24.1 mph 52 % 0.0 in
12:42 22.4 °F 12.3 °F 1027.7 in North 8.0 mph 22.5 mph 53 % 0.0 in
12:52 22.4 °F 11.8 °F 1027.3 in NE 6.4 mph 25.7 mph 51 % 0.0 in
12:57 22.6 °F 11.9 °F 1027.7 in East 12.9 mph 25.7 mph 51 % 0.0 in
13:02 22.9 °F 12.2 °F 1027.7 in North 12.9 mph 22.5 mph 51 % 0.0 in
13:07 22.9 °F 11.9 °F 1027.3 in NNW 12.9 mph 22.5 mph 50 % 0.0 in
13:12 22.6 °F 11.6 °F 1027.3 in ENE 16.1 mph 30.6 mph 50 % 0.0 in
13:17 22.6 °F 11.6 °F 1027.3 in NE 3.2 mph 30.6 mph 50 % 0.0 in
13:22 22.7 °F 11.7 °F 1027.3 in NE 8.0 mph 30.6 mph 50 % 0.0 in
13:32 23.2 °F 11.9 °F 1027.0 in NNW 4.8 mph 30.6 mph 49 % 0.0 in
13:37 23.4 °F 11.4 °F 1027.0 in NE 14.5 mph 30.6 mph 47 % 0.0 in
13:42 23.3 °F 11.7 °F 1027.0 in NNE 20.9 mph 24.1 mph 48 % 0.0 in
13:47 23.4 °F 11.8 °F 1027.0 in NNE 11.3 mph 25.7 mph 48 % 0.0 in
13:52 23.4 °F 12.1 °F 1027.0 in NE 16.1 mph 25.7 mph 49 % 0.0 in
13:57 23.7 °F 12.0 °F 1027.0 in ENE 6.4 mph 25.7 mph 48 % 0.0 in
14:02 23.9 °F 11.9 °F 1027.0 in NE 19.3 mph 25.7 mph 47 % 0.0 in
14:07 23.9 °F 12.2 °F 1026.6 in NNE 9.7 mph 25.7 mph 48 % 0.0 in
14:12 24.2 °F 12.8 °F 1026.6 in NE 9.7 mph 27.4 mph 49 % 0.0 in
14:17 24.4 °F 12.4 °F 1026.6 in NE 24.1 mph 27.4 mph 47 % 0.0 in
14:22 24.2 °F 12.8 °F 1026.6 in NE 16.1 mph 35.4 mph 49 % 0.0 in
14:27 24.1 °F 12.7 °F 1026.3 in ENE 20.9 mph 35.4 mph 49 % 0.0 in
14:32 24.3 °F 13.2 °F 1026.3 in North 22.5 mph 27.4 mph 50 % 0.0 in
14:37 24.4 °F 13.3 °F 1026.3 in NNW 12.9 mph 27.4 mph 50 % 0.0 in
14:42 24.5 °F 13.1 °F 1026.3 in NE 16.1 mph 27.4 mph 49 % 0.0 in
14:47 24.4 °F 13.6 °F 1026.3 in NE 14.5 mph 27.4 mph 51 % 0.0 in
14:52 24.6 °F 13.8 °F 1026.3 in ENE 14.5 mph 25.7 mph 51 % 0.0 in
14:57 24.9 °F 14.1 °F 1026.3 in East 11.3 mph 27.4 mph 51 % 0.0 in
15:02 24.8 °F 14.0 °F 1026.0 in NE 14.5 mph 27.4 mph 51 % 0.0 in
15:07 24.9 °F 13.8 °F 1026.0 in ENE 11.3 mph 27.4 mph 50 % 0.0 in
15:12 25.1 °F 14.3 °F 1026.0 in NNE 14.5 mph 27.4 mph 51 % 0.0 in
15:22 24.9 °F 13.8 °F 1026.0 in ENE 14.5 mph 29.0 mph 50 % 0.0 in
15:27 24.9 °F 14.4 °F 1026.0 in East 9.7 mph 29.0 mph 52 % 0.0 in
15:32 25.1 °F 14.3 °F 1026.0 in ENE 20.9 mph 27.4 mph 51 % 0.0 in
15:37 25.1 °F 14.3 °F 1026.0 in NNW 14.5 mph 27.4 mph 51 % 0.0 in
15:42 24.9 °F 14.1 °F 1025.6 in NE 11.3 mph 35.4 mph 51 % 0.0 in
15:47 25.0 °F 14.2 °F 1025.6 in NE 11.3 mph 35.4 mph 51 % 0.0 in
15:52 25.2 °F 14.0 °F 1025.6 in ENE 25.7 mph 35.4 mph 50 % 0.0 in
15:57 25.1 °F 14.3 °F 1026.0 in NE 17.7 mph 32.2 mph 51 % 0.0 in
16:02 25.3 °F 14.4 °F 1026.0 in ENE 22.5 mph 33.8 mph 51 % 0.0 in
16:07 25.2 °F 14.3 °F 1026.0 in ENE 17.7 mph 33.8 mph 51 % 0.0 in
16:12 25.2 °F 14.3 °F 1026.0 in NE 16.1 mph 33.8 mph 51 % 0.0 in
16:17 25.1 °F 14.3 °F 1026.0 in NE 11.3 mph 32.2 mph 51 % 0.0 in
16:22 25.3 °F 14.7 °F 1025.6 in ENE 16.1 mph 32.2 mph 52 % 0.0 in
16:27 25.8 °F 14.9 °F 1025.6 in ENE 17.7 mph 32.2 mph 51 % 0.0 in
16:32 25.8 °F 14.3 °F 1025.6 in ENE 22.5 mph 25.7 mph 49 % 0.0 in
16:37 25.4 °F 14.2 °F 1025.6 in East 16.1 mph 30.6 mph 50 % 0.0 in
16:42 25.4 °F 14.2 °F 1025.3 in ENE 17.7 mph 30.6 mph 50 % 0.0 in
16:47 25.5 °F 14.3 °F 1025.6 in ENE 25.7 mph 33.8 mph 50 % 0.0 in
16:52 25.7 °F 14.8 °F 1025.6 in NNE 16.1 mph 33.8 mph 51 % 0.0 in
16:57 25.5 °F 14.6 °F 1025.3 in North 14.5 mph 35.4 mph 51 % 0.0 in
17:02 25.4 °F 14.5 °F 1025.3 in North 11.3 mph 35.4 mph 51 % 0.0 in
17:07 25.4 °F 14.2 °F 1025.3 in NNW 9.7 mph 35.4 mph 50 % 0.0 in
17:12 25.3 °F 14.4 °F 1025.3 in NE 14.5 mph 32.2 mph 51 % 0.0 in
17:17 25.4 °F 14.5 °F 1024.9 in NE 9.7 mph 30.6 mph 51 % 0.0 in
17:22 25.4 °F 14.5 °F 1024.9 in NE 14.5 mph 30.6 mph 51 % 0.0 in
17:27 25.4 °F 14.2 °F 1024.9 in NE 9.7 mph 32.2 mph 50 % 0.0 in
17:32 25.3 °F 14.7 °F 1024.9 in NE 20.9 mph 32.2 mph 52 % 0.0 in
17:37 25.3 °F 14.4 °F 1024.9 in NNE 14.5 mph 30.6 mph 51 % 0.0 in
17:42 25.3 °F 14.7 °F 1024.9 in NE 19.3 mph 29.0 mph 52 % 0.0 in
17:47 25.2 °F 14.6 °F 1024.9 in NE 14.5 mph 33.8 mph 52 % 0.0 in
17:52 25.2 °F 14.9 °F 1024.9 in NNW 12.9 mph 33.8 mph 53 % 0.0 in
17:57 25.4 °F 14.5 °F 1024.9 in NE 32.2 mph 33.8 mph 51 % 0.0 in
18:02 25.4 °F 14.5 °F 1024.9 in NNE 22.5 mph 32.2 mph 51 % 0.0 in
18:07 25.4 °F 14.8 °F 1024.6 in NNE 9.7 mph 32.2 mph 52 % 0.0 in
18:12 25.4 °F 14.5 °F 1024.9 in NNE 16.1 mph 32.2 mph 51 % 0.0 in
18:17 25.5 °F 14.9 °F 1024.6 in NE 20.9 mph 32.2 mph 52 % 0.0 in
18:22 25.3 °F 14.4 °F 1024.9 in NE 20.9 mph 29.0 mph 51 % 0.0 in
18:32 25.2 °F 14.9 °F 1024.6 in NNE 14.5 mph 29.0 mph 53 % 0.0 in
18:42 25.4 °F 15.1 °F 1024.6 in NNE 17.7 mph 29.0 mph 53 % 0.0 in
18:52 25.1 °F 14.6 °F 1024.6 in ENE 11.3 mph 29.0 mph 52 % 0.0 in
18:57 24.9 °F 14.4 °F 1024.6 in NE 12.9 mph 33.8 mph 52 % 0.0 in
19:02 24.9 °F 14.7 °F 1024.6 in North 14.5 mph 33.8 mph 53 % 0.0 in
19:07 24.9 °F 14.7 °F 1024.6 in ENE 14.5 mph 30.6 mph 53 % 0.0 in
19:12 24.9 °F 14.4 °F 1024.6 in ENE 16.1 mph 29.0 mph 52 % 0.0 in
19:17 24.7 °F 14.5 °F 1024.6 in NE 14.5 mph 29.0 mph 53 % 0.0 in
19:22 24.7 °F 14.5 °F 1024.6 in NNE 11.3 mph 27.4 mph 53 % 0.0 in
19:32 24.6 °F 14.7 °F 1024.6 in NE 12.9 mph 32.2 mph 54 % 0.0 in
19:42 24.3 °F 14.1 °F 1024.6 in ENE 11.3 mph 32.2 mph 53 % 0.0 in
19:47 24.3 °F 14.4 °F 1024.6 in NE 17.7 mph 32.2 mph 54 % 0.0 in
19:52 24.2 °F 14.3 °F 1024.3 in NE 14.5 mph 32.2 mph 54 % 0.0 in
19:57 24.1 °F 14.5 °F 1024.3 in West 9.7 mph 33.8 mph 55 % 0.0 in
20:02 24.0 °F 14.4 °F 1024.6 in NE 22.5 mph 33.8 mph 55 % 0.0 in
20:12 24.0 °F 14.7 °F 1024.6 in NNE 12.9 mph 24.1 mph 56 % 0.0 in
20:17 23.8 °F 14.5 °F 1024.6 in NE 24.1 mph 24.1 mph 56 % 0.0 in
20:22 23.8 °F 14.5 °F 1024.6 in NE 11.3 mph 27.4 mph 56 % 0.0 in
20:27 23.7 °F 14.4 °F 1024.3 in NNE 12.9 mph 27.4 mph 56 % 0.0 in
20:32 23.6 °F 14.3 °F 1024.6 in NE 11.3 mph 25.7 mph 56 % 0.0 in
20:37 23.5 °F 14.2 °F 1024.3 in NE 16.1 mph 27.4 mph 56 % 0.0 in
20:42 23.4 °F 14.4 °F 1024.3 in NE 17.7 mph 27.4 mph 57 % 0.0 in
20:52 23.2 °F 14.5 °F 1024.3 in ENE 11.3 mph 27.4 mph 58 % 0.0 in
20:57 23.1 °F 14.4 °F 1024.3 in ENE 14.5 mph 25.7 mph 58 % 0.0 in
21:02 22.9 °F 14.5 °F 1024.3 in NE 6.4 mph 24.1 mph 59 % 0.0 in
21:07 22.8 °F 14.4 °F 1024.6 in NE 9.7 mph 20.9 mph 59 % 0.0 in
21:12 22.7 °F 14.3 °F 1024.6 in NE 16.1 mph 19.3 mph 59 % 0.0 in
21:17 22.6 °F 14.4 °F 1024.6 in NE 11.3 mph 20.9 mph 60 % 0.0 in
21:22 22.4 °F 14.3 °F 1024.6 in NNE 12.9 mph 22.5 mph 60 % 0.0 in
21:27 22.3 °F 14.4 °F 1024.6 in NNE 9.7 mph 22.5 mph 61 % 0.0 in
21:32 22.2 °F 14.6 °F 1024.6 in NNE 11.3 mph 22.5 mph 62 % 0.0 in
21:37 22.1 °F 14.5 °F 1024.6 in NNE 9.7 mph 20.9 mph 62 % 0.0 in
21:42 21.8 °F 14.4 °F 1024.6 in ENE 8.0 mph 19.3 mph 63 % 0.0 in
21:52 21.3 °F 14.5 °F 1024.6 in NNE 11.3 mph 16.1 mph 65 % 0.0 in
21:57 21.4 °F 14.5 °F 1024.6 in NE 8.0 mph 22.5 mph 65 % 0.0 in
22:02 21.3 °F 14.5 °F 1024.6 in North 4.8 mph 22.5 mph 65 % 0.0 in
22:12 21.2 °F 14.6 °F 1024.6 in NE 14.5 mph 20.9 mph 66 % 0.0 in
22:17 21.1 °F 14.5 °F 1024.6 in NE 11.3 mph 20.9 mph 66 % 0.0 in
22:22 20.9 °F 14.5 °F 1024.6 in NE 12.9 mph 25.7 mph 67 % 0.0 in
22:27 20.9 °F 14.5 °F 1024.6 in NNE 8.0 mph 25.7 mph 67 % 0.0 in
22:32 20.8 °F 14.4 °F 1024.6 in ENE 16.1 mph 25.7 mph 67 % 0.0 in
22:37 20.8 °F 14.4 °F 1024.6 in NE 9.7 mph 24.1 mph 67 % 0.0 in
22:42 20.7 °F 14.4 °F 1024.6 in North 6.4 mph 24.1 mph 67 % 0.0 in
22:47 20.7 °F 14.4 °F 1024.6 in NE 14.5 mph 22.5 mph 67 % 0.0 in
22:52 20.7 °F 14.6 °F 1024.6 in NE 12.9 mph 22.5 mph 68 % 0.0 in
22:57 20.6 °F 14.5 °F 1024.6 in NE 16.1 mph 22.5 mph 68 % 0.0 in
23:02 20.4 °F 14.3 °F 1024.9 in NE 8.0 mph 20.9 mph 68 % 0.0 in
23:07 20.3 °F 14.4 °F 1024.9 in NNE 17.7 mph 20.9 mph 69 % 0.0 in
23:12 20.2 °F 14.3 °F 1024.9 in NNE 11.3 mph 19.3 mph 69 % 0.0 in
23:17 20.1 °F 14.5 °F 1024.9 in NE 6.4 mph 19.3 mph 70 % 0.0 in
23:22 20.1 °F 14.5 °F 1024.9 in NE 8.0 mph 19.3 mph 70 % 0.0 in
23:27 20.0 °F 14.4 °F 1024.9 in NE 11.3 mph 20.9 mph 70 % 0.0 in
23:32 19.9 °F 14.3 °F 1024.9 in NE 16.1 mph 20.9 mph 70 % 0.0 in
23:42 19.8 °F 14.4 °F 1024.9 in NE 11.3 mph 19.3 mph 71 % 0.0 in
23:47 19.7 °F 14.3 °F 1024.9 in NE 9.7 mph 19.3 mph 71 % 0.0 in
23:52 19.6 °F 14.4 °F 1024.9 in NNE 11.3 mph 19.3 mph 72 % 0.0 in
23:57 19.4 °F 14.2 °F 1024.9 in NNE 12.9 mph 19.3 mph 72 % 0.0 in
Meteo18
Compliments of Weather Underground - 4 mb

Script developed by  Jim McMurry - jmcmurry@mwt.net Adapted for the template by  Wim van der Kuil - Leuven-Template.eu

You find our weather info also at:

European Weather Network

Weather Underground

Equipment we use:

Weather-station
Davis Vue

Weather-program
Meteobridge

Weather-server
Raspberry PI 2 B+

Provider
1 and 1

Davis Vue

Meteobridge

Raspberry PI 2 B+

1 and 1